Orangeburg, SC (29116)

8:28 AM EDT on July 30, 2014 (GMT -0400)
Orangeburg Municipal (KOGB) Elev 197 ft | 33.46 °N, 80.86 °W | Change Station

Current weather conditions updated 35 minutes ago

Scattered Clouds
Scattered Clouds
73 °F
Feels Like 73 °F
N
8
Wind Variable Wind from NE

Today is forecast to be nearly the same temperature as yesterday.

Today
High -- | Low -- °F
--% Chance of Precip.
Yesterday
High -- | Low -- °F
Precip. -- in
6:34 AM 8:24 PM
Waxing Crescent, 11% visible
Pressure 30.00 in
Visibility 10.0 miles
Clouds Scattered Clouds 9500 ft
Dew Point 62 °F
Humidity 68%
Rainfall 0.00 in
Snow Depth Not available.
UV 1 out of 12
Pollen 5.20 out of 12
PM2.5 Good
Flu Activity Not available.
METAR KOGB 301153Z AUTO 04007KT 10SM SCT095 23/17 A3001 RMK AO2 SLP158 T02280167 10233 20217 51013

More Conditions Fewer Conditions

Pressure 30.00 in
Visibility 10.0 miles
Clouds Scattered Clouds 9500 ft
Dew Point 62 °F
Humidity 68%
Rainfall 0.00 in
Snow Depth Not available.
UV 1 out of 12
Pollen 5.20 out of 12
PM2.5 Good
Flu Activity Not available.
METAR KOGB 301153Z AUTO 04007KT 10SM SCT095 23/17 A3001 RMK AO2 SLP158 T02280167 10233 20217 51013

More Conditions Fewer Conditions

10-Day Weather Forecast

Almanac

Astronomy

Jul. 30, 2014 Rise Set
Actual Time 6:34 AM EDT 8:24 PM EDT
Civil Twilight 6:06 AM EDT 8:51 PM EDT
Nautical Twilight 5:33 AM EDT 9:24 PM EDT
Astronomical Twilight 4:58 AM EDT 9:59 PM EDT
Moon 9:51 AM EDT 10:20 PM EDT
Length of Visible Light 14h 44m
Length of Day
13h 50m
Tomorrow will be 1m 30s shorter.
Waxing Crescent, 11% of the Moon is Illuminated
Today
Waxing Crescent
Aug 3
First Quarter
Aug 10
Full
Aug 17
Last Quarter
Aug 25
New

Today's Extremes

State Highs State Lows

Community

WunderPhotos

Upload Photos

1,739,054 photos uploaded!

Nearby

Air Quality

  Air Quality AQ Index Pollutant
Yesterday Good
OZONE
Yesterday Good
PM2.5
Current Good
PM2.5
Wednesday Good
OZONE

Snow Depth

Station Depth Elevation
No new snow has been reported.

Earthquake Activity

City Distance Mag. Time & Date
No recent earthquake activity has been reported nearby.
Minimum magnitude displayed is 2.5.

Coastal Water Temperatures

Place Temperature
No Stations Reporting

Nearby Weather Stations

Station Location Temp. Heat Index Dew Point Humidity Wind Precip. Elev Updated Type
North Orangeburg, Orangeburg, SC 70.2 °F 70 °F 64 °F 82% North  at  0.0 mph 1.20 in / hr 331 ft 8:28 AM EDT Rapid Fire
Santee State Park-K9YS, Santee, SC 71.6 °F - 68 °F 87% North  at  0.0 mph 0.00 in / hr 135 ft 8:26 AM EDT Rapid Fire
RAWS SANTEE NWR SC, Santee, SC 71 °F 71 °F 65 °F 81% NNW  at  4 mph 0.00 in / hr 78 ft 7:44 AM EDT MADIS
Dingle Pond, Summerton, SC 73.2 °F 73 °F 67 °F 82% NW  at  2.2 mph 0.00 in / hr 95 ft 8:28 AM EDT Rapid Fire
Morgantown, Springfield, SC 71.9 °F 73 °F 65 °F 78% NNW  at  2.0 mph 0.00 in / hr 243 ft 8:28 AM EDT Rapid Fire

Show More Stations Show Fewer Stations